sensor_id;sensor_type;location;lat;lon;timestamp;P1;durP1;ratioP1;P2;durP2;ratioP2
15931;SDS011;8065;49.520;11.284;2022-12-18T00:01:50;25.83;;;11.80;;
15931;SDS011;8065;49.520;11.284;2022-12-18T00:04:18;23.13;;;12.67;;
15931;SDS011;8065;49.520;11.284;2022-12-18T00:06:48;25.07;;;12.57;;
15931;SDS011;8065;49.520;11.284;2022-12-18T00:09:14;23.97;;;12.40;;
15931;SDS011;8065;49.520;11.284;2022-12-18T00:11:41;22.13;;;12.13;;
15931;SDS011;8065;49.520;11.284;2022-12-18T00:14:10;23.33;;;12.17;;
15931;SDS011;8065;49.520;11.284;2022-12-18T00:16:38;22.57;;;11.83;;
15931;SDS011;8065;49.520;11.284;2022-12-18T00:19:05;21.80;;;11.80;;
15931;SDS011;8065;49.520;11.284;2022-12-18T00:21:32;24.57;;;13.00;;
15931;SDS011;8065;49.520;11.284;2022-12-18T00:23:59;24.23;;;12.47;;
15931;SDS011;8065;49.520;11.284;2022-12-18T00:26:27;26.73;;;12.47;;
15931;SDS011;8065;49.520;11.284;2022-12-18T00:28:57;25.33;;;13.07;;
15931;SDS011;8065;49.520;11.284;2022-12-18T00:31:26;23.17;;;12.03;;
15931;SDS011;8065;49.520;11.284;2022-12-18T00:33:53;22.57;;;12.40;;
15931;SDS011;8065;49.520;11.284;2022-12-18T00:36:22;26.43;;;13.00;;
15931;SDS011;8065;49.520;11.284;2022-12-18T00:38:50;26.10;;;13.37;;
15931;SDS011;8065;49.520;11.284;2022-12-18T00:41:17;26.20;;;12.93;;
15931;SDS011;8065;49.520;11.284;2022-12-18T00:44:04;27.97;;;13.53;;
15931;SDS011;8065;49.520;11.284;2022-12-18T00:46:33;23.93;;;13.30;;
15931;SDS011;8065;49.520;11.284;2022-12-18T00:48:59;24.30;;;13.33;;
15931;SDS011;8065;49.520;11.284;2022-12-18T00:51:26;25.67;;;13.27;;
15931;SDS011;8065;49.520;11.284;2022-12-18T00:53:52;25.63;;;13.63;;
15931;SDS011;8065;49.520;11.284;2022-12-18T00:56:20;24.90;;;13.50;;
15931;SDS011;8065;49.520;11.284;2022-12-18T00:58:47;26.77;;;12.77;;
15931;SDS011;8065;49.520;11.284;2022-12-18T01:01:14;26.03;;;14.13;;
15931;SDS011;8065;49.520;11.284;2022-12-18T01:03:42;28.07;;;13.07;;
15931;SDS011;8065;49.520;11.284;2022-12-18T01:06:10;28.23;;;14.20;;
15931;SDS011;8065;49.520;11.284;2022-12-18T01:08:38;25.90;;;13.27;;
15931;SDS011;8065;49.520;11.284;2022-12-18T01:11:07;24.70;;;13.43;;
15931;SDS011;8065;49.520;11.284;2022-12-18T01:13:34;30.73;;;14.10;;
15931;SDS011;8065;49.520;11.284;2022-12-18T01:16:01;25.77;;;13.07;;
15931;SDS011;8065;49.520;11.284;2022-12-18T01:18:27;28.20;;;14.63;;
15931;SDS011;8065;49.520;11.284;2022-12-18T01:20:55;27.60;;;14.07;;
15931;SDS011;8065;49.520;11.284;2022-12-18T01:23:22;29.10;;;14.40;;
15931;SDS011;8065;49.520;11.284;2022-12-18T01:25:48;28.33;;;14.40;;
15931;SDS011;8065;49.520;11.284;2022-12-18T01:28:15;29.10;;;13.53;;
15931;SDS011;8065;49.520;11.284;2022-12-18T01:30:41;24.57;;;13.47;;
15931;SDS011;8065;49.520;11.284;2022-12-18T01:33:07;25.67;;;13.17;;
15931;SDS011;8065;49.520;11.284;2022-12-18T01:35:39;29.57;;;15.37;;
15931;SDS011;8065;49.520;11.284;2022-12-18T01:38:07;31.70;;;15.13;;
15931;SDS011;8065;49.520;11.284;2022-12-18T01:40:34;30.43;;;15.77;;
15931;SDS011;8065;49.520;11.284;2022-12-18T01:43:01;34.53;;;15.63;;
15931;SDS011;8065;49.520;11.284;2022-12-18T01:45:28;30.93;;;14.97;;
15931;SDS011;8065;49.520;11.284;2022-12-18T01:47:56;29.33;;;15.90;;
15931;SDS011;8065;49.520;11.284;2022-12-18T01:50:27;33.57;;;15.57;;
15931;SDS011;8065;49.520;11.284;2022-12-18T01:52:57;34.23;;;15.73;;
15931;SDS011;8065;49.520;11.284;2022-12-18T01:55:28;33.37;;;16.23;;
15931;SDS011;8065;49.520;11.284;2022-12-18T01:57:57;39.43;;;18.30;;
15931;SDS011;8065;49.520;11.284;2022-12-18T02:00:25;34.67;;;16.50;;
15931;SDS011;8065;49.520;11.284;2022-12-18T02:02:54;38.43;;;17.97;;
15931;SDS011;8065;49.520;11.284;2022-12-18T02:05:23;35.97;;;17.83;;
15931;SDS011;8065;49.520;11.284;2022-12-18T02:07:58;37.57;;;17.17;;
15931;SDS011;8065;49.520;11.284;2022-12-18T02:10:35;41.20;;;18.60;;
15931;SDS011;8065;49.520;11.284;2022-12-18T02:13:10;42.10;;;18.77;;
15931;SDS011;8065;49.520;11.284;2022-12-18T02:15:41;42.47;;;19.00;;
15931;SDS011;8065;49.520;11.284;2022-12-18T02:18:18;39.37;;;17.77;;
15931;SDS011;8065;49.520;11.284;2022-12-18T02:20:47;41.43;;;18.23;;
15931;SDS011;8065;49.520;11.284;2022-12-18T02:23:21;47.03;;;19.83;;
15931;SDS011;8065;49.520;11.284;2022-12-18T02:26:05;46.53;;;20.50;;
15931;SDS011;8065;49.520;11.284;2022-12-18T02:28:40;51.40;;;21.27;;
15931;SDS011;8065;49.520;11.284;2022-12-18T02:31:11;53.57;;;21.37;;
15931;SDS011;8065;49.520;11.284;2022-12-18T02:33:40;56.53;;;21.37;;
15931;SDS011;8065;49.520;11.284;2022-12-18T02:36:10;62.00;;;22.93;;
15931;SDS011;8065;49.520;11.284;2022-12-18T02:38:39;54.27;;;21.07;;
15931;SDS011;8065;49.520;11.284;2022-12-18T02:41:09;50.93;;;20.60;;
15931;SDS011;8065;49.520;11.284;2022-12-18T02:43:37;55.73;;;22.43;;
15931;SDS011;8065;49.520;11.284;2022-12-18T02:48:58;51.10;;;21.17;;
15931;SDS011;8065;49.520;11.284;2022-12-18T02:51:33;53.70;;;21.77;;
15931;SDS011;8065;49.520;11.284;2022-12-18T02:54:14;54.63;;;22.40;;
15931;SDS011;8065;49.520;11.284;2022-12-18T02:56:50;54.97;;;21.90;;
15931;SDS011;8065;49.520;11.284;2022-12-18T02:59:21;55.13;;;21.57;;
15931;SDS011;8065;49.520;11.284;2022-12-18T03:01:54;48.40;;;21.53;;
15931;SDS011;8065;49.520;11.284;2022-12-18T03:04:25;54.57;;;22.50;;
15931;SDS011;8065;49.520;11.284;2022-12-18T03:06:56;53.17;;;22.17;;
15931;SDS011;8065;49.520;11.284;2022-12-18T03:09:28;57.17;;;22.10;;
15931;SDS011;8065;49.520;11.284;2022-12-18T03:12:01;57.17;;;22.37;;
15931;SDS011;8065;49.520;11.284;2022-12-18T03:14:48;52.60;;;20.47;;
15931;SDS011;8065;49.520;11.284;2022-12-18T03:17:18;50.07;;;20.73;;
15931;SDS011;8065;49.520;11.284;2022-12-18T03:19:48;55.63;;;21.97;;
15931;SDS011;8065;49.520;11.284;2022-12-18T03:22:17;53.33;;;20.80;;
15931;SDS011;8065;49.520;11.284;2022-12-18T03:24:44;48.67;;;21.50;;
15931;SDS011;8065;49.520;11.284;2022-12-18T03:27:14;53.13;;;21.70;;
15931;SDS011;8065;49.520;11.284;2022-12-18T03:29:45;45.77;;;20.20;;
15931;SDS011;8065;49.520;11.284;2022-12-18T03:32:15;52.90;;;20.53;;
15931;SDS011;8065;49.520;11.284;2022-12-18T03:34:50;49.13;;;20.60;;
15931;SDS011;8065;49.520;11.284;2022-12-18T03:37:17;46.70;;;20.27;;
15931;SDS011;8065;49.520;11.284;2022-12-18T03:39:44;44.40;;;19.47;;
15931;SDS011;8065;49.520;11.284;2022-12-18T03:42:12;51.70;;;21.50;;
15931;SDS011;8065;49.520;11.284;2022-12-18T03:44:50;49.57;;;20.37;;
15931;SDS011;8065;49.520;11.284;2022-12-18T03:47:25;48.43;;;21.07;;
15931;SDS011;8065;49.520;11.284;2022-12-18T03:49:56;47.93;;;21.00;;
15931;SDS011;8065;49.520;11.284;2022-12-18T03:52:30;44.60;;;18.87;;
15931;SDS011;8065;49.520;11.284;2022-12-18T03:55:02;43.17;;;18.77;;
15931;SDS011;8065;49.520;11.284;2022-12-18T03:57:32;45.20;;;19.03;;
15931;SDS011;8065;49.520;11.284;2022-12-18T04:00:00;44.00;;;18.47;;
15931;SDS011;8065;49.520;11.284;2022-12-18T04:02:30;42.43;;;19.10;;
15931;SDS011;8065;49.520;11.284;2022-12-18T04:05:00;46.00;;;20.10;;
15931;SDS011;8065;49.520;11.284;2022-12-18T04:07:30;44.03;;;19.17;;
15931;SDS011;8065;49.520;11.284;2022-12-18T04:09:58;41.97;;;19.13;;
15931;SDS011;8065;49.520;11.284;2022-12-18T04:12:28;42.37;;;18.50;;
15931;SDS011;8065;49.520;11.284;2022-12-18T04:14:56;42.60;;;19.00;;
15931;SDS011;8065;49.520;11.284;2022-12-18T04:17:23;43.73;;;19.30;;
15931;SDS011;8065;49.520;11.284;2022-12-18T04:19:50;40.33;;;17.10;;
15931;SDS011;8065;49.520;11.284;2022-12-18T04:22:16;42.60;;;17.97;;
15931;SDS011;8065;49.520;11.284;2022-12-18T04:24:43;38.57;;;17.60;;
15931;SDS011;8065;49.520;11.284;2022-12-18T04:27:09;41.17;;;19.10;;
15931;SDS011;8065;49.520;11.284;2022-12-18T04:29:36;40.10;;;17.83;;
15931;SDS011;8065;49.520;11.284;2022-12-18T04:32:03;44.50;;;18.87;;
15931;SDS011;8065;49.520;11.284;2022-12-18T04:34:30;38.60;;;18.13;;
15931;SDS011;8065;49.520;11.284;2022-12-18T04:36:57;43.97;;;19.43;;
15931;SDS011;8065;49.520;11.284;2022-12-18T04:39:23;38.13;;;18.03;;
15931;SDS011;8065;49.520;11.284;2022-12-18T04:41:50;42.20;;;18.63;;
15931;SDS011;8065;49.520;11.284;2022-12-18T04:44:16;42.97;;;18.10;;
15931;SDS011;8065;49.520;11.284;2022-12-18T04:46:42;38.57;;;17.43;;
15931;SDS011;8065;49.520;11.284;2022-12-18T04:49:10;37.20;;;17.50;;
15931;SDS011;8065;49.520;11.284;2022-12-18T04:51:37;38.53;;;17.70;;
15931;SDS011;8065;49.520;11.284;2022-12-18T04:54:04;40.13;;;18.17;;
15931;SDS011;8065;49.520;11.284;2022-12-18T04:56:30;39.97;;;18.00;;
15931;SDS011;8065;49.520;11.284;2022-12-18T04:58:57;40.43;;;18.60;;
15931;SDS011;8065;49.520;11.284;2022-12-18T05:01:24;36.33;;;17.03;;
15931;SDS011;8065;49.520;11.284;2022-12-18T05:03:50;40.13;;;19.20;;
15931;SDS011;8065;49.520;11.284;2022-12-18T05:06:19;37.33;;;17.33;;
15931;SDS011;8065;49.520;11.284;2022-12-18T05:08:45;37.13;;;17.27;;
15931;SDS011;8065;49.520;11.284;2022-12-18T05:11:13;35.90;;;17.17;;
15931;SDS011;8065;49.520;11.284;2022-12-18T05:13:41;39.70;;;17.67;;
15931;SDS011;8065;49.520;11.284;2022-12-18T05:16:08;39.17;;;17.70;;
15931;SDS011;8065;49.520;11.284;2022-12-18T05:18:35;38.20;;;17.20;;
15931;SDS011;8065;49.520;11.284;2022-12-18T05:21:02;37.63;;;16.97;;
15931;SDS011;8065;49.520;11.284;2022-12-18T05:23:31;36.60;;;16.07;;
15931;SDS011;8065;49.520;11.284;2022-12-18T05:25:58;39.60;;;17.43;;
15931;SDS011;8065;49.520;11.284;2022-12-18T05:28:26;44.07;;;17.70;;
15931;SDS011;8065;49.520;11.284;2022-12-18T05:30:55;37.13;;;16.27;;
15931;SDS011;8065;49.520;11.284;2022-12-18T05:33:23;35.43;;;15.83;;
15931;SDS011;8065;49.520;11.284;2022-12-18T05:35:51;33.63;;;16.20;;
15931;SDS011;8065;49.520;11.284;2022-12-18T05:38:18;37.87;;;16.27;;
15931;SDS011;8065;49.520;11.284;2022-12-18T05:40:46;36.10;;;16.10;;
15931;SDS011;8065;49.520;11.284;2022-12-18T05:43:13;35.40;;;16.40;;
15931;SDS011;8065;49.520;11.284;2022-12-18T05:45:40;39.50;;;16.80;;
15931;SDS011;8065;49.520;11.284;2022-12-18T05:48:07;32.73;;;15.97;;
15931;SDS011;8065;49.520;11.284;2022-12-18T05:50:34;38.03;;;16.90;;
15931;SDS011;8065;49.520;11.284;2022-12-18T05:53:01;38.67;;;16.90;;
15931;SDS011;8065;49.520;11.284;2022-12-18T05:55:28;33.73;;;15.93;;
15931;SDS011;8065;49.520;11.284;2022-12-18T05:57:56;35.37;;;15.97;;
15931;SDS011;8065;49.520;11.284;2022-12-18T06:00:22;39.77;;;17.80;;
15931;SDS011;8065;49.520;11.284;2022-12-18T06:02:48;36.10;;;15.63;;
15931;SDS011;8065;49.520;11.284;2022-12-18T06:05:15;39.23;;;16.80;;
15931;SDS011;8065;49.520;11.284;2022-12-18T06:07:41;40.50;;;18.50;;
15931;SDS011;8065;49.520;11.284;2022-12-18T06:10:08;42.57;;;17.97;;
15931;SDS011;8065;49.520;11.284;2022-12-18T06:12:35;33.43;;;17.97;;
15931;SDS011;8065;49.520;11.284;2022-12-18T06:15:03;34.93;;;16.07;;
15931;SDS011;8065;49.520;11.284;2022-12-18T06:17:30;35.43;;;16.33;;
15931;SDS011;8065;49.520;11.284;2022-12-18T06:19:57;39.10;;;15.83;;
15931;SDS011;8065;49.520;11.284;2022-12-18T06:22:24;33.00;;;15.17;;
15931;SDS011;8065;49.520;11.284;2022-12-18T06:24:50;34.57;;;15.90;;
15931;SDS011;8065;49.520;11.284;2022-12-18T06:27:16;36.80;;;15.23;;
15931;SDS011;8065;49.520;11.284;2022-12-18T06:29:43;37.53;;;16.30;;
15931;SDS011;8065;49.520;11.284;2022-12-18T06:32:11;33.93;;;16.20;;
15931;SDS011;8065;49.520;11.284;2022-12-18T06:34:38;36.87;;;16.00;;
15931;SDS011;8065;49.520;11.284;2022-12-18T06:37:04;34.40;;;15.47;;
15931;SDS011;8065;49.520;11.284;2022-12-18T06:39:31;35.73;;;16.00;;
15931;SDS011;8065;49.520;11.284;2022-12-18T06:41:57;33.30;;;14.43;;
15931;SDS011;8065;49.520;11.284;2022-12-18T06:44:24;33.97;;;15.93;;
15931;SDS011;8065;49.520;11.284;2022-12-18T06:46:50;33.53;;;15.13;;
15931;SDS011;8065;49.520;11.284;2022-12-18T06:49:18;34.63;;;15.40;;
15931;SDS011;8065;49.520;11.284;2022-12-18T06:51:44;33.47;;;15.00;;
15931;SDS011;8065;49.520;11.284;2022-12-18T06:54:11;39.13;;;17.23;;
15931;SDS011;8065;49.520;11.284;2022-12-18T06:56:38;38.50;;;16.53;;
15931;SDS011;8065;49.520;11.284;2022-12-18T06:59:04;36.60;;;15.97;;
15931;SDS011;8065;49.520;11.284;2022-12-18T07:01:31;32.97;;;15.43;;
15931;SDS011;8065;49.520;11.284;2022-12-18T07:03:57;37.27;;;15.80;;
15931;SDS011;8065;49.520;11.284;2022-12-18T07:06:26;38.87;;;16.40;;
15931;SDS011;8065;49.520;11.284;2022-12-18T07:08:53;35.23;;;15.90;;
15931;SDS011;8065;49.520;11.284;2022-12-18T07:11:21;34.20;;;15.90;;
15931;SDS011;8065;49.520;11.284;2022-12-18T07:13:47;36.47;;;16.83;;
15931;SDS011;8065;49.520;11.284;2022-12-18T07:16:15;33.63;;;15.83;;
15931;SDS011;8065;49.520;11.284;2022-12-18T07:18:42;32.77;;;15.63;;
15931;SDS011;8065;49.520;11.284;2022-12-18T07:21:11;33.50;;;16.30;;
15931;SDS011;8065;49.520;11.284;2022-12-18T07:23:40;34.33;;;18.57;;
15931;SDS011;8065;49.520;11.284;2022-12-18T07:26:07;33.30;;;16.20;;
15931;SDS011;8065;49.520;11.284;2022-12-18T07:28:36;36.87;;;16.70;;
15931;SDS011;8065;49.520;11.284;2022-12-18T07:31:03;33.93;;;16.90;;
15931;SDS011;8065;49.520;11.284;2022-12-18T07:33:31;32.13;;;15.73;;
15931;SDS011;8065;49.520;11.284;2022-12-18T07:35:58;37.60;;;15.97;;
15931;SDS011;8065;49.520;11.284;2022-12-18T07:38:24;32.73;;;15.30;;
15931;SDS011;8065;49.520;11.284;2022-12-18T07:40:52;37.03;;;15.93;;
15931;SDS011;8065;49.520;11.284;2022-12-18T07:43:19;34.07;;;17.07;;
15931;SDS011;8065;49.520;11.284;2022-12-18T07:45:45;36.17;;;16.27;;
15931;SDS011;8065;49.520;11.284;2022-12-18T07:48:15;32.37;;;14.73;;
15931;SDS011;8065;49.520;11.284;2022-12-18T07:50:41;33.27;;;16.47;;
15931;SDS011;8065;49.520;11.284;2022-12-18T07:53:07;37.77;;;15.67;;
15931;SDS011;8065;49.520;11.284;2022-12-18T07:55:34;36.90;;;16.80;;
15931;SDS011;8065;49.520;11.284;2022-12-18T07:58:02;33.77;;;16.37;;
15931;SDS011;8065;49.520;11.284;2022-12-18T08:00:29;39.57;;;17.83;;
15931;SDS011;8065;49.520;11.284;2022-12-18T08:02:55;34.53;;;17.63;;
15931;SDS011;8065;49.520;11.284;2022-12-18T08:05:22;40.33;;;18.53;;
15931;SDS011;8065;49.520;11.284;2022-12-18T08:07:49;38.57;;;18.10;;
15931;SDS011;8065;49.520;11.284;2022-12-18T08:10:15;39.80;;;18.43;;
15931;SDS011;8065;49.520;11.284;2022-12-18T08:12:42;38.33;;;18.10;;
15931;SDS011;8065;49.520;11.284;2022-12-18T08:15:10;37.37;;;17.10;;
15931;SDS011;8065;49.520;11.284;2022-12-18T08:17:37;36.83;;;17.77;;
15931;SDS011;8065;49.520;11.284;2022-12-18T08:20:04;37.17;;;18.67;;
15931;SDS011;8065;49.520;11.284;2022-12-18T08:22:30;36.50;;;17.30;;
15931;SDS011;8065;49.520;11.284;2022-12-18T08:25:03;36.20;;;17.40;;
15931;SDS011;8065;49.520;11.284;2022-12-18T08:27:30;34.23;;;16.47;;
15931;SDS011;8065;49.520;11.284;2022-12-18T08:29:57;31.90;;;15.23;;
15931;SDS011;8065;49.520;11.284;2022-12-18T08:32:25;33.00;;;15.67;;
15931;SDS011;8065;49.520;11.284;2022-12-18T08:34:52;35.13;;;15.27;;
15931;SDS011;8065;49.520;11.284;2022-12-18T08:37:18;36.40;;;16.47;;
15931;SDS011;8065;49.520;11.284;2022-12-18T08:39:45;38.03;;;17.70;;
15931;SDS011;8065;49.520;11.284;2022-12-18T08:42:11;38.27;;;17.57;;
15931;SDS011;8065;49.520;11.284;2022-12-18T08:44:55;38.17;;;18.37;;
15931;SDS011;8065;49.520;11.284;2022-12-18T08:47:22;35.10;;;17.07;;
15931;SDS011;8065;49.520;11.284;2022-12-18T08:49:50;35.47;;;17.90;;
15931;SDS011;8065;49.520;11.284;2022-12-18T08:52:16;35.53;;;17.67;;
15931;SDS011;8065;49.520;11.284;2022-12-18T08:54:43;35.70;;;16.20;;
15931;SDS011;8065;49.520;11.284;2022-12-18T08:57:09;36.47;;;17.70;;
15931;SDS011;8065;49.520;11.284;2022-12-18T08:59:36;36.80;;;17.50;;
15931;SDS011;8065;49.520;11.284;2022-12-18T09:02:02;35.63;;;17.80;;
15931;SDS011;8065;49.520;11.284;2022-12-18T09:04:28;39.77;;;19.37;;
15931;SDS011;8065;49.520;11.284;2022-12-18T09:06:56;42.13;;;22.10;;
15931;SDS011;8065;49.520;11.284;2022-12-18T09:09:23;38.60;;;18.83;;
15931;SDS011;8065;49.520;11.284;2022-12-18T09:11:49;33.17;;;17.30;;
15931;SDS011;8065;49.520;11.284;2022-12-18T09:14:16;34.67;;;18.07;;
15931;SDS011;8065;49.520;11.284;2022-12-18T09:16:42;40.37;;;18.50;;
15931;SDS011;8065;49.520;11.284;2022-12-18T09:19:09;36.47;;;17.30;;
15931;SDS011;8065;49.520;11.284;2022-12-18T09:21:36;33.73;;;16.80;;
15931;SDS011;8065;49.520;11.284;2022-12-18T09:24:08;30.80;;;15.93;;
15931;SDS011;8065;49.520;11.284;2022-12-18T09:26:38;32.23;;;16.30;;
15931;SDS011;8065;49.520;11.284;2022-12-18T09:29:04;32.10;;;15.57;;
15931;SDS011;8065;49.520;11.284;2022-12-18T09:31:32;33.17;;;15.67;;
15931;SDS011;8065;49.520;11.284;2022-12-18T09:33:59;30.53;;;15.77;;
15931;SDS011;8065;49.520;11.284;2022-12-18T09:36:25;32.00;;;15.83;;
15931;SDS011;8065;49.520;11.284;2022-12-18T09:38:52;30.57;;;15.37;;
15931;SDS011;8065;49.520;11.284;2022-12-18T09:41:30;27.77;;;15.03;;
15931;SDS011;8065;49.520;11.284;2022-12-18T09:44:09;29.43;;;14.97;;
15931;SDS011;8065;49.520;11.284;2022-12-18T09:46:43;30.33;;;15.03;;
15931;SDS011;8065;49.520;11.284;2022-12-18T09:49:12;39.63;;;18.97;;
15931;SDS011;8065;49.520;11.284;2022-12-18T09:51:42;37.13;;;18.73;;
15931;SDS011;8065;49.520;11.284;2022-12-18T09:54:14;59.17;;;29.23;;
15931;SDS011;8065;49.520;11.284;2022-12-18T09:56:45;32.63;;;15.67;;
15931;SDS011;8065;49.520;11.284;2022-12-18T09:59:15;28.23;;;15.37;;
15931;SDS011;8065;49.520;11.284;2022-12-18T10:01:47;30.73;;;15.30;;
15931;SDS011;8065;49.520;11.284;2022-12-18T10:04:13;31.97;;;15.70;;
15931;SDS011;8065;49.520;11.284;2022-12-18T10:06:42;26.03;;;14.07;;
15931;SDS011;8065;49.520;11.284;2022-12-18T10:09:14;30.80;;;16.97;;
15931;SDS011;8065;49.520;11.284;2022-12-18T10:11:52;31.33;;;16.67;;
15931;SDS011;8065;49.520;11.284;2022-12-18T10:14:27;31.87;;;18.17;;
15931;SDS011;8065;49.520;11.284;2022-12-18T10:17:01;26.83;;;14.50;;
15931;SDS011;8065;49.520;11.284;2022-12-18T10:19:39;30.47;;;18.60;;
15931;SDS011;8065;49.520;11.284;2022-12-18T10:22:16;29.73;;;16.17;;
15931;SDS011;8065;49.520;11.284;2022-12-18T10:24:52;29.27;;;17.23;;
15931;SDS011;8065;49.520;11.284;2022-12-18T10:27:27;33.73;;;18.97;;
15931;SDS011;8065;49.520;11.284;2022-12-18T10:29:55;31.53;;;16.80;;
15931;SDS011;8065;49.520;11.284;2022-12-18T10:32:22;30.67;;;16.40;;
15931;SDS011;8065;49.520;11.284;2022-12-18T10:34:52;32.70;;;20.13;;
15931;SDS011;8065;49.520;11.284;2022-12-18T10:37:23;27.17;;;16.87;;
15931;SDS011;8065;49.520;11.284;2022-12-18T10:40:04;27.67;;;14.73;;
15931;SDS011;8065;49.520;11.284;2022-12-18T10:42:36;32.87;;;19.23;;
15931;SDS011;8065;49.520;11.284;2022-12-18T10:45:05;42.30;;;25.47;;
15931;SDS011;8065;49.520;11.284;2022-12-18T10:47:35;37.50;;;21.20;;
15931;SDS011;8065;49.520;11.284;2022-12-18T10:50:11;30.03;;;16.30;;
15931;SDS011;8065;49.520;11.284;2022-12-18T10:52:52;30.57;;;14.43;;
15931;SDS011;8065;49.520;11.284;2022-12-18T10:55:20;30.00;;;16.23;;
15931;SDS011;8065;49.520;11.284;2022-12-18T10:57:48;25.47;;;14.93;;
15931;SDS011;8065;49.520;11.284;2022-12-18T11:00:21;25.73;;;14.00;;
15931;SDS011;8065;49.520;11.284;2022-12-18T11:02:49;23.43;;;13.13;;
15931;SDS011;8065;49.520;11.284;2022-12-18T11:05:23;29.00;;;15.13;;
15931;SDS011;8065;49.520;11.284;2022-12-18T11:07:51;25.37;;;13.60;;
15931;SDS011;8065;49.520;11.284;2022-12-18T11:10:25;27.70;;;14.17;;
15931;SDS011;8065;49.520;11.284;2022-12-18T11:12:56;25.97;;;13.53;;
15931;SDS011;8065;49.520;11.284;2022-12-18T11:15:35;26.70;;;13.10;;
15931;SDS011;8065;49.520;11.284;2022-12-18T11:18:01;24.70;;;13.43;;
15931;SDS011;8065;49.520;11.284;2022-12-18T11:20:30;28.30;;;14.27;;
15931;SDS011;8065;49.520;11.284;2022-12-18T11:22:58;24.17;;;13.17;;
15931;SDS011;8065;49.520;11.284;2022-12-18T11:25:27;25.67;;;13.33;;
15931;SDS011;8065;49.520;11.284;2022-12-18T11:27:54;25.67;;;13.23;;
15931;SDS011;8065;49.520;11.284;2022-12-18T11:30:24;26.27;;;12.97;;
15931;SDS011;8065;49.520;11.284;2022-12-18T11:32:53;22.77;;;12.23;;
15931;SDS011;8065;49.520;11.284;2022-12-18T11:35:28;21.50;;;12.23;;
15931;SDS011;8065;49.520;11.284;2022-12-18T11:38:02;23.07;;;12.80;;
15931;SDS011;8065;49.520;11.284;2022-12-18T11:40:38;23.43;;;12.37;;
15931;SDS011;8065;49.520;11.284;2022-12-18T11:43:10;26.77;;;13.83;;
15931;SDS011;8065;49.520;11.284;2022-12-18T11:45:43;22.50;;;12.17;;
15931;SDS011;8065;49.520;11.284;2022-12-18T11:50:46;24.63;;;13.50;;
15931;SDS011;8065;49.520;11.284;2022-12-18T11:53:16;26.70;;;14.50;;
15931;SDS011;8065;49.520;11.284;2022-12-18T11:55:47;24.60;;;13.77;;
15931;SDS011;8065;49.520;11.284;2022-12-18T11:58:26;23.80;;;12.80;;
15931;SDS011;8065;49.520;11.284;2022-12-18T12:01:10;23.33;;;13.20;;
15931;SDS011;8065;49.520;11.284;2022-12-18T12:03:50;26.40;;;14.20;;
15931;SDS011;8065;49.520;11.284;2022-12-18T12:06:32;22.67;;;13.07;;
15931;SDS011;8065;49.520;11.284;2022-12-18T12:09:08;25.33;;;14.20;;
15931;SDS011;8065;49.520;11.284;2022-12-18T12:11:42;26.87;;;13.97;;
15931;SDS011;8065;49.520;11.284;2022-12-18T12:14:31;28.90;;;15.53;;
15931;SDS011;8065;49.520;11.284;2022-12-18T12:17:08;30.90;;;16.27;;
15931;SDS011;8065;49.520;11.284;2022-12-18T12:19:45;28.93;;;14.93;;
15931;SDS011;8065;49.520;11.284;2022-12-18T12:22:22;26.73;;;14.30;;
15931;SDS011;8065;49.520;11.284;2022-12-18T12:24:59;27.43;;;15.20;;
15931;SDS011;8065;49.520;11.284;2022-12-18T12:27:39;26.73;;;14.60;;
15931;SDS011;8065;49.520;11.284;2022-12-18T12:30:18;28.83;;;15.60;;
15931;SDS011;8065;49.520;11.284;2022-12-18T12:32:53;28.23;;;14.90;;
15931;SDS011;8065;49.520;11.284;2022-12-18T12:35:33;27.67;;;14.53;;
15931;SDS011;8065;49.520;11.284;2022-12-18T12:38:10;27.43;;;13.77;;
15931;SDS011;8065;49.520;11.284;2022-12-18T12:40:41;26.83;;;13.60;;
15931;SDS011;8065;49.520;11.284;2022-12-18T12:43:16;28.03;;;14.43;;
15931;SDS011;8065;49.520;11.284;2022-12-18T12:45:49;25.67;;;13.53;;
15931;SDS011;8065;49.520;11.284;2022-12-18T12:48:22;26.50;;;14.10;;
15931;SDS011;8065;49.520;11.284;2022-12-18T12:51:01;24.53;;;12.90;;
15931;SDS011;8065;49.520;11.284;2022-12-18T12:53:34;25.47;;;13.33;;
15931;SDS011;8065;49.520;11.284;2022-12-18T12:56:03;26.80;;;13.03;;
15931;SDS011;8065;49.520;11.284;2022-12-18T12:58:33;24.77;;;13.73;;
15931;SDS011;8065;49.520;11.284;2022-12-18T13:01:09;32.43;;;15.13;;
15931;SDS011;8065;49.520;11.284;2022-12-18T13:03:46;27.40;;;14.10;;
15931;SDS011;8065;49.520;11.284;2022-12-18T13:06:23;28.90;;;15.33;;
15931;SDS011;8065;49.520;11.284;2022-12-18T13:09:02;27.93;;;13.80;;
15931;SDS011;8065;49.520;11.284;2022-12-18T13:11:30;27.17;;;14.13;;
15931;SDS011;8065;49.520;11.284;2022-12-18T13:14:20;27.03;;;14.13;;
15931;SDS011;8065;49.520;11.284;2022-12-18T13:16:50;23.27;;;13.77;;
15931;SDS011;8065;49.520;11.284;2022-12-18T13:19:23;32.40;;;16.10;;
15931;SDS011;8065;49.520;11.284;2022-12-18T13:21:52;26.80;;;15.50;;
15931;SDS011;8065;49.520;11.284;2022-12-18T13:24:22;37.07;;;21.23;;
15931;SDS011;8065;49.520;11.284;2022-12-18T13:26:51;35.80;;;21.37;;
15931;SDS011;8065;49.520;11.284;2022-12-18T13:32:20;33.07;;;18.40;;
15931;SDS011;8065;49.520;11.284;2022-12-18T13:34:47;33.27;;;20.53;;
15931;SDS011;8065;49.520;11.284;2022-12-18T13:43:15;25.63;;;14.03;;
15931;SDS011;8065;49.520;11.284;2022-12-18T13:45:49;25.33;;;13.93;;
15931;SDS011;8065;49.520;11.284;2022-12-18T13:48:26;28.83;;;17.17;;
15931;SDS011;8065;49.520;11.284;2022-12-18T13:50:59;25.63;;;13.27;;
15931;SDS011;8065;49.520;11.284;2022-12-18T13:53:30;28.37;;;16.03;;
15931;SDS011;8065;49.520;11.284;2022-12-18T13:55:59;31.10;;;15.77;;
15931;SDS011;8065;49.520;11.284;2022-12-18T13:58:26;33.90;;;16.47;;
15931;SDS011;8065;49.520;11.284;2022-12-18T14:00:52;39.57;;;20.40;;
15931;SDS011;8065;49.520;11.284;2022-12-18T14:03:21;27.77;;;15.23;;
15931;SDS011;8065;49.520;11.284;2022-12-18T14:05:55;34.70;;;17.07;;
15931;SDS011;8065;49.520;11.284;2022-12-18T14:08:27;37.77;;;19.63;;
15931;SDS011;8065;49.520;11.284;2022-12-18T14:10:59;46.90;;;23.00;;
15931;SDS011;8065;49.520;11.284;2022-12-18T14:13:29;56.80;;;27.23;;
15931;SDS011;8065;49.520;11.284;2022-12-18T14:15:59;35.87;;;16.77;;
15931;SDS011;8065;49.520;11.284;2022-12-18T14:18:29;47.20;;;28.73;;
15931;SDS011;8065;49.520;11.284;2022-12-18T14:21:04;34.80;;;22.07;;
15931;SDS011;8065;49.520;11.284;2022-12-18T14:23:32;28.17;;;14.13;;
15931;SDS011;8065;49.520;11.284;2022-12-18T14:26:00;27.97;;;14.50;;
15931;SDS011;8065;49.520;11.284;2022-12-18T14:28:28;24.87;;;13.37;;
15931;SDS011;8065;49.520;11.284;2022-12-18T14:30:55;24.93;;;15.00;;
15931;SDS011;8065;49.520;11.284;2022-12-18T14:33:22;25.10;;;13.50;;
15931;SDS011;8065;49.520;11.284;2022-12-18T14:35:54;23.93;;;13.37;;
15931;SDS011;8065;49.520;11.284;2022-12-18T14:38:26;29.00;;;15.23;;
15931;SDS011;8065;49.520;11.284;2022-12-18T14:40:55;24.73;;;13.33;;
15931;SDS011;8065;49.520;11.284;2022-12-18T14:43:26;22.47;;;12.73;;
15931;SDS011;8065;49.520;11.284;2022-12-18T14:45:53;23.87;;;13.37;;
15931;SDS011;8065;49.520;11.284;2022-12-18T14:48:22;24.03;;;12.70;;
15931;SDS011;8065;49.520;11.284;2022-12-18T14:51:00;23.17;;;12.10;;